sensor_id;sensor_type;location;lat;lon;timestamp;P1;durP1;ratioP1;P2;durP2;ratioP2
6127;SDS011;7073;42.672;23.256;2024-02-15T00:00:57;7.50;;;4.70;;
6127;SDS011;7073;42.672;23.256;2024-02-15T00:07:04;9.52;;;5.40;;
6127;SDS011;7073;42.672;23.256;2024-02-15T00:09:56;4.63;;;2.63;;
6127;SDS011;7073;42.672;23.256;2024-02-15T00:18:08;8.10;;;3.58;;
6127;SDS011;7073;42.672;23.256;2024-02-15T00:26:46;6.82;;;3.70;;
6127;SDS011;7073;42.672;23.256;2024-02-15T00:29:13;9.20;;;4.75;;
6127;SDS011;7073;42.672;23.256;2024-02-15T00:31:41;8.07;;;3.97;;
6127;SDS011;7073;42.672;23.256;2024-02-15T00:34:41;7.93;;;3.28;;
6127;SDS011;7073;42.672;23.256;2024-02-15T00:40:10;9.27;;;4.85;;
6127;SDS011;7073;42.672;23.256;2024-02-15T00:42:37;9.38;;;4.78;;
6127;SDS011;7073;42.672;23.256;2024-02-15T00:48:10;6.65;;;3.28;;
6127;SDS011;7073;42.672;23.256;2024-02-15T00:58:20;5.82;;;3.63;;
6127;SDS011;7073;42.672;23.256;2024-02-15T01:00:49;5.28;;;3.65;;
6127;SDS011;7073;42.672;23.256;2024-02-15T01:03:16;8.48;;;4.63;;
6127;SDS011;7073;42.672;23.256;2024-02-15T01:05:43;7.18;;;4.78;;
6127;SDS011;7073;42.672;23.256;2024-02-15T01:08:09;7.18;;;3.75;;
6127;SDS011;7073;42.672;23.256;2024-02-15T01:10:36;5.35;;;3.80;;
6127;SDS011;7073;42.672;23.256;2024-02-15T01:13:03;6.28;;;3.80;;
6127;SDS011;7073;42.672;23.256;2024-02-15T01:15:31;9.25;;;4.18;;
6127;SDS011;7073;42.672;23.256;2024-02-15T01:18:00;5.85;;;4.03;;
6127;SDS011;7073;42.672;23.256;2024-02-15T01:20:27;10.80;;;3.97;;
6127;SDS011;7073;42.672;23.256;2024-02-15T01:26:12;8.00;;;4.90;;
6127;SDS011;7073;42.672;23.256;2024-02-15T01:53:11;8.40;;;4.85;;
6127;SDS011;7073;42.672;23.256;2024-02-15T01:59:00;5.85;;;2.92;;
6127;SDS011;7073;42.672;23.256;2024-02-15T02:01:39;7.90;;;3.13;;
6127;SDS011;7073;42.672;23.256;2024-02-15T02:04:16;10.15;;;5.05;;
6127;SDS011;7073;42.672;23.256;2024-02-15T02:06:45;6.80;;;3.92;;
6127;SDS011;7073;42.672;23.256;2024-02-15T02:09:14;6.72;;;3.55;;
6127;SDS011;7073;42.672;23.256;2024-02-15T02:11:42;8.38;;;4.72;;
6127;SDS011;7073;42.672;23.256;2024-02-15T02:14:26;9.23;;;3.05;;
6127;SDS011;7073;42.672;23.256;2024-02-15T02:20:07;6.30;;;2.60;;
6127;SDS011;7073;42.672;23.256;2024-02-15T02:26:42;11.45;;;5.03;;
6127;SDS011;7073;42.672;23.256;2024-02-15T02:48:02;6.88;;;4.47;;
6127;SDS011;7073;42.672;23.256;2024-02-15T02:56:53;8.48;;;4.40;;
6127;SDS011;7073;42.672;23.256;2024-02-15T03:02:37;10.52;;;5.07;;
6127;SDS011;7073;42.672;23.256;2024-02-15T03:05:19;20.30;;;5.65;;
6127;SDS011;7073;42.672;23.256;2024-02-15T03:17:32;11.70;;;5.57;;
6127;SDS011;7073;42.672;23.256;2024-02-15T03:24:03;10.70;;;5.40;;
6127;SDS011;7073;42.672;23.256;2024-02-15T03:29:52;5.63;;;3.70;;
6127;SDS011;7073;42.672;23.256;2024-02-15T03:32:22;9.73;;;5.72;;
6127;SDS011;7073;42.672;23.256;2024-02-15T03:34:50;9.43;;;6.00;;
6127;SDS011;7073;42.672;23.256;2024-02-15T03:37:19;10.63;;;5.13;;
6127;SDS011;7073;42.672;23.256;2024-02-15T03:39:50;10.88;;;4.97;;
6127;SDS011;7073;42.672;23.256;2024-02-15T03:42:17;12.00;;;5.20;;
6127;SDS011;7073;42.672;23.256;2024-02-15T04:15:50;9.02;;;4.43;;
6127;SDS011;7073;42.672;23.256;2024-02-15T04:18:18;11.07;;;6.00;;
6127;SDS011;7073;42.672;23.256;2024-02-15T04:26:49;9.13;;;6.03;;
6127;SDS011;7073;42.672;23.256;2024-02-15T04:50:29;8.90;;;4.60;;
6127;SDS011;7073;42.672;23.256;2024-02-15T04:52:59;7.07;;;3.88;;
6127;SDS011;7073;42.672;23.256;2024-02-15T04:55:28;7.47;;;4.75;;
6127;SDS011;7073;42.672;23.256;2024-02-15T04:57:56;11.98;;;5.55;;
6127;SDS011;7073;42.672;23.256;2024-02-15T05:00:35;13.77;;;5.10;;
6127;SDS011;7073;42.672;23.256;2024-02-15T05:03:20;8.05;;;4.07;;
6127;SDS011;7073;42.672;23.256;2024-02-15T05:06:02;8.63;;;5.13;;
6127;SDS011;7073;42.672;23.256;2024-02-15T05:08:34;8.43;;;4.60;;
6127;SDS011;7073;42.672;23.256;2024-02-15T05:11:14;10.52;;;4.72;;
6127;SDS011;7073;42.672;23.256;2024-02-15T05:13:58;12.00;;;5.50;;
6127;SDS011;7073;42.672;23.256;2024-02-15T05:16:44;9.63;;;5.10;;
6127;SDS011;7073;42.672;23.256;2024-02-15T05:25:25;12.13;;;5.40;;
6127;SDS011;7073;42.672;23.256;2024-02-15T05:28:19;7.80;;;4.65;;
6127;SDS011;7073;42.672;23.256;2024-02-15T05:31:08;10.20;;;5.88;;
6127;SDS011;7073;42.672;23.256;2024-02-15T05:40:03;9.60;;;4.93;;
6127;SDS011;7073;42.672;23.256;2024-02-15T05:42:48;8.95;;;4.63;;
6127;SDS011;7073;42.672;23.256;2024-02-15T05:45:44;8.88;;;4.10;;
6127;SDS011;7073;42.672;23.256;2024-02-15T05:48:26;6.80;;;4.00;;
6127;SDS011;7073;42.672;23.256;2024-02-15T05:51:05;9.05;;;4.15;;
6127;SDS011;7073;42.672;23.256;2024-02-15T05:53:43;7.55;;;4.32;;
6127;SDS011;7073;42.672;23.256;2024-02-15T05:56:29;10.13;;;4.32;;
6127;SDS011;7073;42.672;23.256;2024-02-15T05:59:09;11.07;;;5.18;;
6127;SDS011;7073;42.672;23.256;2024-02-15T06:01:39;7.55;;;3.67;;
6127;SDS011;7073;42.672;23.256;2024-02-15T06:04:15;11.98;;;5.55;;
6127;SDS011;7073;42.672;23.256;2024-02-15T06:06:57;14.10;;;5.65;;
6127;SDS011;7073;42.672;23.256;2024-02-15T06:09:28;5.07;;;3.53;;
6127;SDS011;7073;42.672;23.256;2024-02-15T06:11:58;8.40;;;4.78;;
6127;SDS011;7073;42.672;23.256;2024-02-15T06:14:34;5.38;;;2.95;;
6127;SDS011;7073;42.672;23.256;2024-02-15T06:17:01;12.07;;;5.78;;
6127;SDS011;7073;42.672;23.256;2024-02-15T06:19:32;11.25;;;5.28;;
6127;SDS011;7073;42.672;23.256;2024-02-15T06:22:01;10.82;;;5.75;;
6127;SDS011;7073;42.672;23.256;2024-02-15T06:24:33;6.60;;;4.32;;
6127;SDS011;7073;42.672;23.256;2024-02-15T06:27:00;11.85;;;5.07;;
6127;SDS011;7073;42.672;23.256;2024-02-15T06:29:34;8.80;;;4.07;;
6127;SDS011;7073;42.672;23.256;2024-02-15T06:32:20;7.15;;;3.63;;
6127;SDS011;7073;42.672;23.256;2024-02-15T06:35:04;13.55;;;4.35;;
6127;SDS011;7073;42.672;23.256;2024-02-15T06:37:48;11.45;;;5.60;;
6127;SDS011;7073;42.672;23.256;2024-02-15T06:40:32;9.35;;;4.07;;
6127;SDS011;7073;42.672;23.256;2024-02-15T06:43:04;6.95;;;3.97;;
6127;SDS011;7073;42.672;23.256;2024-02-15T06:51:23;13.00;;;6.40;;
6127;SDS011;7073;42.672;23.256;2024-02-15T06:53:53;6.88;;;3.55;;
6127;SDS011;7073;42.672;23.256;2024-02-15T06:56:38;7.65;;;4.18;;
6127;SDS011;7073;42.672;23.256;2024-02-15T06:59:06;10.00;;;5.05;;
6127;SDS011;7073;42.672;23.256;2024-02-15T07:01:50;10.50;;;5.00;;
6127;SDS011;7073;42.672;23.256;2024-02-15T07:04:19;9.55;;;4.80;;
6127;SDS011;7073;42.672;23.256;2024-02-15T07:07:05;14.05;;;5.97;;
6127;SDS011;7073;42.672;23.256;2024-02-15T07:09:33;9.93;;;5.22;;
6127;SDS011;7073;42.672;23.256;2024-02-15T07:12:01;6.65;;;3.58;;
6127;SDS011;7073;42.672;23.256;2024-02-15T07:14:31;9.38;;;4.47;;
6127;SDS011;7073;42.672;23.256;2024-02-15T07:17:24;10.00;;;5.18;;
6127;SDS011;7073;42.672;23.256;2024-02-15T07:20:09;9.32;;;4.60;;
6127;SDS011;7073;42.672;23.256;2024-02-15T18:45:15;12.98;;;6.35;;
6127;SDS011;7073;42.672;23.256;2024-02-15T18:47:48;16.67;;;7.57;;
6127;SDS011;7073;42.672;23.256;2024-02-15T18:50:46;16.55;;;8.48;;
6127;SDS011;7073;42.672;23.256;2024-02-15T18:53:38;26.48;;;12.13;;
6127;SDS011;7073;42.672;23.256;2024-02-15T18:56:12;30.40;;;13.88;;
6127;SDS011;7073;42.672;23.256;2024-02-15T18:59:22;27.08;;;14.88;;
6127;SDS011;7073;42.672;23.256;2024-02-15T19:02:19;26.08;;;12.65;;
6127;SDS011;7073;42.672;23.256;2024-02-15T19:05:08;27.92;;;14.68;;
6127;SDS011;7073;42.672;23.256;2024-02-15T19:08:00;27.02;;;13.13;;
6127;SDS011;7073;42.672;23.256;2024-02-15T19:10:48;28.92;;;15.77;;
6127;SDS011;7073;42.672;23.256;2024-02-15T19:13:29;29.48;;;14.68;;
6127;SDS011;7073;42.672;23.256;2024-02-15T19:16:18;31.17;;;16.58;;
6127;SDS011;7073;42.672;23.256;2024-02-15T19:18:48;34.28;;;14.75;;
6127;SDS011;7073;42.672;23.256;2024-02-15T19:27:46;27.98;;;13.57;;
6127;SDS011;7073;42.672;23.256;2024-02-15T19:30:14;25.40;;;10.60;;
6127;SDS011;7073;42.672;23.256;2024-02-15T19:32:40;20.17;;;9.98;;
6127;SDS011;7073;42.672;23.256;2024-02-15T20:03:34;24.00;;;11.68;;
6127;SDS011;7073;42.672;23.256;2024-02-15T20:06:06;22.58;;;12.65;;
6127;SDS011;7073;42.672;23.256;2024-02-15T20:08:51;19.50;;;9.65;;
6127;SDS011;7073;42.672;23.256;2024-02-15T20:11:34;19.40;;;9.77;;
6127;SDS011;7073;42.672;23.256;2024-02-15T21:37:50;15.82;;;8.52;;
6127;SDS011;7073;42.672;23.256;2024-02-15T21:40:23;17.08;;;9.05;;
6127;SDS011;7073;42.672;23.256;2024-02-15T21:42:53;19.83;;;7.93;;
6127;SDS011;7073;42.672;23.256;2024-02-15T21:45:34;14.80;;;7.55;;
6127;SDS011;7073;42.672;23.256;2024-02-15T22:06:37;4.03;;;3.45;;
6127;SDS011;7073;42.672;23.256;2024-02-15T22:12:34;14.15;;;6.75;;
6127;SDS011;7073;42.672;23.256;2024-02-15T22:15:02;10.70;;;4.80;;
6127;SDS011;7073;42.672;23.256;2024-02-15T22:17:29;17.58;;;6.93;;
6127;SDS011;7073;42.672;23.256;2024-02-15T22:19:59;9.73;;;4.28;;
6127;SDS011;7073;42.672;23.256;2024-02-15T22:22:30;10.95;;;4.97;;
6127;SDS011;7073;42.672;23.256;2024-02-15T22:25:21;15.73;;;8.00;;
6127;SDS011;7073;42.672;23.256;2024-02-15T22:27:52;12.65;;;6.50;;
6127;SDS011;7073;42.672;23.256;2024-02-15T22:30:37;15.13;;;6.40;;
6127;SDS011;7073;42.672;23.256;2024-02-15T22:33:04;14.95;;;6.82;;
6127;SDS011;7073;42.672;23.256;2024-02-15T22:35:31;12.23;;;5.82;;
6127;SDS011;7073;42.672;23.256;2024-02-15T22:41:15;8.82;;;5.40;;
6127;SDS011;7073;42.672;23.256;2024-02-15T22:43:42;12.15;;;5.43;;
6127;SDS011;7073;42.672;23.256;2024-02-15T22:46:12;12.40;;;6.32;;
6127;SDS011;7073;42.672;23.256;2024-02-15T22:48:39;11.50;;;4.20;;
6127;SDS011;7073;42.672;23.256;2024-02-15T22:51:31;12.38;;;5.25;;
6127;SDS011;7073;42.672;23.256;2024-02-15T22:54:01;8.82;;;5.05;;
6127;SDS011;7073;42.672;23.256;2024-02-15T22:56:32;11.32;;;5.18;;
6127;SDS011;7073;42.672;23.256;2024-02-15T22:58:59;4.32;;;1.90;;
6127;SDS011;7073;42.672;23.256;2024-02-15T23:01:30;10.55;;;4.47;;
6127;SDS011;7073;42.672;23.256;2024-02-15T23:03:58;9.05;;;4.68;;
6127;SDS011;7073;42.672;23.256;2024-02-15T23:06:39;8.27;;;4.55;;
6127;SDS011;7073;42.672;23.256;2024-02-15T23:09:20;14.18;;;6.10;;
6127;SDS011;7073;42.672;23.256;2024-02-15T23:12:00;15.75;;;6.63;;
6127;SDS011;7073;42.672;23.256;2024-02-15T23:14:35;13.68;;;6.03;;
6127;SDS011;7073;42.672;23.256;2024-02-15T23:20:47;17.73;;;6.55;;
6127;SDS011;7073;42.672;23.256;2024-02-15T23:42:24;9.82;;;4.40;;
6127;SDS011;7073;42.672;23.256;2024-02-15T23:45:08;16.42;;;6.32;;
6127;SDS011;7073;42.672;23.256;2024-02-15T23:47:49;19.38;;;8.05;;
6127;SDS011;7073;42.672;23.256;2024-02-15T23:50:22;13.23;;;7.03;;
6127;SDS011;7073;42.672;23.256;2024-02-15T23:53:04;14.77;;;6.80;;
6127;SDS011;7073;42.672;23.256;2024-02-15T23:55:37;18.92;;;8.48;;
6127;SDS011;7073;42.672;23.256;2024-02-15T23:58:07;16.17;;;7.35;;
